sensor_id;sensor_type;location;lat;lon;timestamp;P1;durP1;ratioP1;P2;durP2;ratioP2
72791;SDS011;60907;53.268;8.764;2023-04-23T00:01:35;16.00;;;10.93;;
72791;SDS011;60907;53.268;8.764;2023-04-23T00:04:03;14.45;;;10.07;;
72791;SDS011;60907;53.268;8.764;2023-04-23T00:06:30;14.23;;;9.85;;
72791;SDS011;60907;53.268;8.764;2023-04-23T00:08:57;17.00;;;11.02;;
72791;SDS011;60907;53.268;8.764;2023-04-23T00:11:24;17.83;;;11.82;;
72791;SDS011;60907;53.268;8.764;2023-04-23T00:13:50;18.50;;;12.30;;
72791;SDS011;60907;53.268;8.764;2023-04-23T00:16:17;17.33;;;11.70;;
72791;SDS011;60907;53.268;8.764;2023-04-23T00:18:43;19.85;;;13.27;;
72791;SDS011;60907;53.268;8.764;2023-04-23T00:21:09;21.67;;;13.25;;
72791;SDS011;60907;53.268;8.764;2023-04-23T00:23:35;21.92;;;14.20;;
72791;SDS011;60907;53.268;8.764;2023-04-23T00:26:00;19.58;;;13.40;;
72791;SDS011;60907;53.268;8.764;2023-04-23T00:28:26;22.70;;;14.30;;
72791;SDS011;60907;53.268;8.764;2023-04-23T00:30:51;23.63;;;14.75;;
72791;SDS011;60907;53.268;8.764;2023-04-23T00:33:17;23.05;;;14.45;;
72791;SDS011;60907;53.268;8.764;2023-04-23T00:35:42;24.90;;;15.75;;
72791;SDS011;60907;53.268;8.764;2023-04-23T00:38:08;26.05;;;15.27;;
72791;SDS011;60907;53.268;8.764;2023-04-23T00:40:33;26.13;;;14.95;;
72791;SDS011;60907;53.268;8.764;2023-04-23T00:42:59;27.63;;;16.35;;
72791;SDS011;60907;53.268;8.764;2023-04-23T00:45:25;26.90;;;16.65;;
72791;SDS011;60907;53.268;8.764;2023-04-23T00:47:50;27.58;;;17.00;;
72791;SDS011;60907;53.268;8.764;2023-04-23T00:52:43;31.20;;;17.20;;
72791;SDS011;60907;53.268;8.764;2023-04-23T00:55:08;28.50;;;17.77;;
72791;SDS011;60907;53.268;8.764;2023-04-23T00:57:34;31.95;;;19.20;;
72791;SDS011;60907;53.268;8.764;2023-04-23T01:00:00;31.92;;;18.45;;
72791;SDS011;60907;53.268;8.764;2023-04-23T01:02:29;31.23;;;20.27;;
72791;SDS011;60907;53.268;8.764;2023-04-23T01:04:55;35.47;;;20.38;;
72791;SDS011;60907;53.268;8.764;2023-04-23T01:07:20;33.92;;;19.98;;
72791;SDS011;60907;53.268;8.764;2023-04-23T01:09:47;33.83;;;20.63;;
72791;SDS011;60907;53.268;8.764;2023-04-23T01:12:16;37.15;;;21.02;;
72791;SDS011;60907;53.268;8.764;2023-04-23T01:14:42;39.40;;;23.15;;
72791;SDS011;60907;53.268;8.764;2023-04-23T01:17:07;39.13;;;22.63;;
72791;SDS011;60907;53.268;8.764;2023-04-23T01:19:34;42.20;;;24.15;;
72791;SDS011;60907;53.268;8.764;2023-04-23T01:22:00;43.03;;;24.08;;
72791;SDS011;60907;53.268;8.764;2023-04-23T01:24:27;41.83;;;22.77;;
72791;SDS011;60907;53.268;8.764;2023-04-23T01:29:19;38.10;;;21.45;;
72791;SDS011;60907;53.268;8.764;2023-04-23T01:31:45;43.35;;;23.45;;
72791;SDS011;60907;53.268;8.764;2023-04-23T01:34:11;38.78;;;21.27;;
72791;SDS011;60907;53.268;8.764;2023-04-23T01:36:37;37.83;;;21.50;;
72791;SDS011;60907;53.268;8.764;2023-04-23T01:39:02;40.70;;;21.13;;
72791;SDS011;60907;53.268;8.764;2023-04-23T01:41:28;34.35;;;19.73;;
72791;SDS011;60907;53.268;8.764;2023-04-23T01:43:53;42.08;;;21.48;;
72791;SDS011;60907;53.268;8.764;2023-04-23T01:46:20;36.53;;;19.35;;
72791;SDS011;60907;53.268;8.764;2023-04-23T01:48:45;38.78;;;20.15;;
72791;SDS011;60907;53.268;8.764;2023-04-23T01:51:11;39.08;;;21.67;;
72791;SDS011;60907;53.268;8.764;2023-04-23T01:53:36;37.67;;;20.60;;
72791;SDS011;60907;53.268;8.764;2023-04-23T01:56:02;39.78;;;20.05;;
72791;SDS011;60907;53.268;8.764;2023-04-23T01:58:28;40.63;;;22.23;;
72791;SDS011;60907;53.268;8.764;2023-04-23T02:00:53;36.53;;;18.95;;
72791;SDS011;60907;53.268;8.764;2023-04-23T02:03:18;35.90;;;19.30;;
72791;SDS011;60907;53.268;8.764;2023-04-23T02:05:44;30.48;;;17.73;;
72791;SDS011;60907;53.268;8.764;2023-04-23T02:08:10;30.05;;;15.85;;
72791;SDS011;60907;53.268;8.764;2023-04-23T02:10:35;31.83;;;16.52;;
72791;SDS011;60907;53.268;8.764;2023-04-23T02:13:01;31.42;;;15.63;;
72791;SDS011;60907;53.268;8.764;2023-04-23T02:15:27;27.05;;;15.07;;
72791;SDS011;60907;53.268;8.764;2023-04-23T02:17:53;30.70;;;14.73;;
72791;SDS011;60907;53.268;8.764;2023-04-23T02:20:19;25.27;;;14.45;;
72791;SDS011;60907;53.268;8.764;2023-04-23T02:22:45;26.23;;;14.43;;
72791;SDS011;60907;53.268;8.764;2023-04-23T02:25:11;22.85;;;12.93;;
72791;SDS011;60907;53.268;8.764;2023-04-23T02:27:40;22.75;;;12.48;;
72791;SDS011;60907;53.268;8.764;2023-04-23T02:30:06;22.02;;;12.57;;
72791;SDS011;60907;53.268;8.764;2023-04-23T02:34:58;24.33;;;12.70;;
72791;SDS011;60907;53.268;8.764;2023-04-23T02:37:25;23.65;;;12.00;;
72791;SDS011;60907;53.268;8.764;2023-04-23T02:39:51;21.25;;;11.13;;
72791;SDS011;60907;53.268;8.764;2023-04-23T02:42:16;21.73;;;12.47;;
72791;SDS011;60907;53.268;8.764;2023-04-23T02:44:42;18.88;;;11.20;;
72791;SDS011;60907;53.268;8.764;2023-04-23T02:47:07;18.30;;;10.82;;
72791;SDS011;60907;53.268;8.764;2023-04-23T02:49:32;21.83;;;11.63;;
72791;SDS011;60907;53.268;8.764;2023-04-23T02:51:58;23.05;;;12.70;;
72791;SDS011;60907;53.268;8.764;2023-04-23T02:54:23;23.65;;;12.10;;
72791;SDS011;60907;53.268;8.764;2023-04-23T02:56:49;22.17;;;12.25;;
72791;SDS011;60907;53.268;8.764;2023-04-23T02:59:14;22.08;;;11.73;;
72791;SDS011;60907;53.268;8.764;2023-04-23T03:01:40;23.00;;;12.63;;
72791;SDS011;60907;53.268;8.764;2023-04-23T03:04:05;19.85;;;11.70;;
72791;SDS011;60907;53.268;8.764;2023-04-23T03:06:31;22.58;;;12.63;;
72791;SDS011;60907;53.268;8.764;2023-04-23T03:08:58;22.73;;;11.23;;
72791;SDS011;60907;53.268;8.764;2023-04-23T03:11:24;22.27;;;12.32;;
72791;SDS011;60907;53.268;8.764;2023-04-23T03:13:49;23.55;;;12.98;;
72791;SDS011;60907;53.268;8.764;2023-04-23T03:16:15;23.20;;;13.52;;
72791;SDS011;60907;53.268;8.764;2023-04-23T03:18:40;24.85;;;12.90;;
72791;SDS011;60907;53.268;8.764;2023-04-23T03:21:06;23.35;;;13.50;;
72791;SDS011;60907;53.268;8.764;2023-04-23T03:23:31;24.75;;;13.05;;
72791;SDS011;60907;53.268;8.764;2023-04-23T03:25:57;20.30;;;12.57;;
72791;SDS011;60907;53.268;8.764;2023-04-23T03:28:22;23.60;;;13.33;;
72791;SDS011;60907;53.268;8.764;2023-04-23T03:30:48;23.85;;;12.52;;
72791;SDS011;60907;53.268;8.764;2023-04-23T03:33:13;21.15;;;11.63;;
72791;SDS011;60907;53.268;8.764;2023-04-23T03:35:38;22.30;;;12.77;;
72791;SDS011;60907;53.268;8.764;2023-04-23T03:38:04;22.27;;;11.70;;
72791;SDS011;60907;53.268;8.764;2023-04-23T03:40:29;22.87;;;12.37;;
72791;SDS011;60907;53.268;8.764;2023-04-23T03:42:55;26.33;;;13.23;;
72791;SDS011;60907;53.268;8.764;2023-04-23T03:45:21;22.98;;;13.23;;
72791;SDS011;60907;53.268;8.764;2023-04-23T03:47:47;25.20;;;13.73;;
72791;SDS011;60907;53.268;8.764;2023-04-23T03:50:12;20.90;;;11.48;;
72791;SDS011;60907;53.268;8.764;2023-04-23T03:52:38;24.40;;;13.55;;
72791;SDS011;60907;53.268;8.764;2023-04-23T03:55:03;24.00;;;12.95;;
72791;SDS011;60907;53.268;8.764;2023-04-23T03:57:29;23.77;;;12.95;;
72791;SDS011;60907;53.268;8.764;2023-04-23T03:59:54;29.55;;;14.85;;
72791;SDS011;60907;53.268;8.764;2023-04-23T04:02:20;27.17;;;14.03;;
72791;SDS011;60907;53.268;8.764;2023-04-23T04:04:45;25.92;;;13.55;;
72791;SDS011;60907;53.268;8.764;2023-04-23T04:07:13;25.42;;;13.82;;
72791;SDS011;60907;53.268;8.764;2023-04-23T04:09:39;25.30;;;12.57;;
72791;SDS011;60907;53.268;8.764;2023-04-23T04:12:04;28.73;;;14.27;;
72791;SDS011;60907;53.268;8.764;2023-04-23T04:14:30;26.98;;;13.93;;
72791;SDS011;60907;53.268;8.764;2023-04-23T04:16:56;28.50;;;14.43;;
72791;SDS011;60907;53.268;8.764;2023-04-23T04:19:22;25.95;;;13.93;;
72791;SDS011;60907;53.268;8.764;2023-04-23T04:21:47;27.48;;;15.35;;
72791;SDS011;60907;53.268;8.764;2023-04-23T04:24:13;25.77;;;13.23;;
72791;SDS011;60907;53.268;8.764;2023-04-23T04:26:39;26.00;;;13.30;;
72791;SDS011;60907;53.268;8.764;2023-04-23T04:29:05;24.17;;;13.07;;
72791;SDS011;60907;53.268;8.764;2023-04-23T04:31:30;24.85;;;13.30;;
72791;SDS011;60907;53.268;8.764;2023-04-23T04:33:56;25.60;;;13.32;;
72791;SDS011;60907;53.268;8.764;2023-04-23T04:36:22;27.52;;;13.25;;
72791;SDS011;60907;53.268;8.764;2023-04-23T04:38:49;26.55;;;13.68;;
72791;SDS011;60907;53.268;8.764;2023-04-23T04:41:16;27.63;;;14.30;;
72791;SDS011;60907;53.268;8.764;2023-04-23T04:43:44;26.00;;;14.43;;
72791;SDS011;60907;53.268;8.764;2023-04-23T04:46:10;28.52;;;14.48;;
72791;SDS011;60907;53.268;8.764;2023-04-23T04:48:35;30.50;;;14.00;;
72791;SDS011;60907;53.268;8.764;2023-04-23T04:51:01;25.27;;;14.02;;
72791;SDS011;60907;53.268;8.764;2023-04-23T04:53:27;31.08;;;15.15;;
72791;SDS011;60907;53.268;8.764;2023-04-23T04:55:52;25.60;;;12.13;;
72791;SDS011;60907;53.268;8.764;2023-04-23T04:58:18;28.85;;;14.07;;
72791;SDS011;60907;53.268;8.764;2023-04-23T05:00:43;29.73;;;14.50;;
72791;SDS011;60907;53.268;8.764;2023-04-23T05:03:09;35.85;;;16.65;;
72791;SDS011;60907;53.268;8.764;2023-04-23T05:05:34;31.95;;;16.10;;
72791;SDS011;60907;53.268;8.764;2023-04-23T05:07:59;30.57;;;15.77;;
72791;SDS011;60907;53.268;8.764;2023-04-23T05:10:28;28.23;;;14.98;;
72791;SDS011;60907;53.268;8.764;2023-04-23T05:12:55;30.25;;;15.25;;
72791;SDS011;60907;53.268;8.764;2023-04-23T05:15:21;30.52;;;15.40;;
72791;SDS011;60907;53.268;8.764;2023-04-23T05:17:46;33.13;;;14.90;;
72791;SDS011;60907;53.268;8.764;2023-04-23T05:20:14;21.15;;;11.40;;
72791;SDS011;60907;53.268;8.764;2023-04-23T05:22:40;33.72;;;15.57;;
72791;SDS011;60907;53.268;8.764;2023-04-23T05:25:06;32.20;;;14.60;;
72791;SDS011;60907;53.268;8.764;2023-04-23T05:27:32;28.55;;;13.93;;
72791;SDS011;60907;53.268;8.764;2023-04-23T05:29:59;31.92;;;15.82;;
72791;SDS011;60907;53.268;8.764;2023-04-23T05:32:27;29.30;;;16.05;;
72791;SDS011;60907;53.268;8.764;2023-04-23T05:34:53;33.55;;;16.40;;
72791;SDS011;60907;53.268;8.764;2023-04-23T05:37:18;29.67;;;14.50;;
72791;SDS011;60907;53.268;8.764;2023-04-23T05:39:43;30.77;;;15.80;;
72791;SDS011;60907;53.268;8.764;2023-04-23T05:42:09;31.25;;;15.55;;
72791;SDS011;60907;53.268;8.764;2023-04-23T05:44:35;29.05;;;15.50;;
72791;SDS011;60907;53.268;8.764;2023-04-23T05:47:00;28.33;;;15.13;;
72791;SDS011;60907;53.268;8.764;2023-04-23T05:49:25;30.15;;;15.27;;
72791;SDS011;60907;53.268;8.764;2023-04-23T05:51:51;33.42;;;16.17;;
72791;SDS011;60907;53.268;8.764;2023-04-23T05:54:17;31.15;;;14.25;;
72791;SDS011;60907;53.268;8.764;2023-04-23T05:56:43;31.73;;;15.98;;
72791;SDS011;60907;53.268;8.764;2023-04-23T05:59:08;31.80;;;15.80;;
72791;SDS011;60907;53.268;8.764;2023-04-23T06:01:34;32.72;;;15.60;;
72791;SDS011;60907;53.268;8.764;2023-04-23T06:03:59;35.03;;;15.93;;
72791;SDS011;60907;53.268;8.764;2023-04-23T06:06:25;32.88;;;15.43;;
72791;SDS011;60907;53.268;8.764;2023-04-23T06:08:51;33.97;;;16.50;;
72791;SDS011;60907;53.268;8.764;2023-04-23T06:11:17;28.63;;;15.27;;
72791;SDS011;60907;53.268;8.764;2023-04-23T06:13:42;30.08;;;16.00;;
72791;SDS011;60907;53.268;8.764;2023-04-23T06:16:08;33.23;;;15.33;;
72791;SDS011;60907;53.268;8.764;2023-04-23T06:18:33;24.17;;;12.88;;
72791;SDS011;60907;53.268;8.764;2023-04-23T06:21:00;24.20;;;11.98;;
72791;SDS011;60907;53.268;8.764;2023-04-23T06:23:29;28.35;;;14.70;;
72791;SDS011;60907;53.268;8.764;2023-04-23T06:25:54;27.55;;;12.55;;
72791;SDS011;60907;53.268;8.764;2023-04-23T06:28:20;33.33;;;15.73;;
72791;SDS011;60907;53.268;8.764;2023-04-23T06:30:45;32.90;;;15.55;;
72791;SDS011;60907;53.268;8.764;2023-04-23T06:33:11;31.75;;;15.73;;
72791;SDS011;60907;53.268;8.764;2023-04-23T06:35:36;33.13;;;14.38;;
72791;SDS011;60907;53.268;8.764;2023-04-23T06:38:02;27.95;;;15.43;;
72791;SDS011;60907;53.268;8.764;2023-04-23T06:40:27;31.45;;;15.02;;
72791;SDS011;60907;53.268;8.764;2023-04-23T06:42:52;32.67;;;15.07;;
72791;SDS011;60907;53.268;8.764;2023-04-23T06:45:18;30.03;;;15.87;;
72791;SDS011;60907;53.268;8.764;2023-04-23T06:47:44;31.52;;;15.98;;
72791;SDS011;60907;53.268;8.764;2023-04-23T06:50:09;29.98;;;15.38;;
72791;SDS011;60907;53.268;8.764;2023-04-23T06:52:35;32.55;;;14.80;;
72791;SDS011;60907;53.268;8.764;2023-04-23T06:55:00;25.55;;;13.52;;
72791;SDS011;60907;53.268;8.764;2023-04-23T06:57:26;31.25;;;16.20;;
72791;SDS011;60907;53.268;8.764;2023-04-23T06:59:52;29.75;;;14.55;;
72791;SDS011;60907;53.268;8.764;2023-04-23T07:02:17;20.33;;;11.77;;
72791;SDS011;60907;53.268;8.764;2023-04-23T07:04:43;28.15;;;14.05;;
72791;SDS011;60907;53.268;8.764;2023-04-23T07:07:08;27.73;;;14.33;;
72791;SDS011;60907;53.268;8.764;2023-04-23T07:09:34;31.23;;;15.93;;
72791;SDS011;60907;53.268;8.764;2023-04-23T07:11:59;22.40;;;11.00;;
72791;SDS011;60907;53.268;8.764;2023-04-23T07:14:26;20.80;;;12.23;;
72791;SDS011;60907;53.268;8.764;2023-04-23T07:16:51;25.95;;;13.50;;
72791;SDS011;60907;53.268;8.764;2023-04-23T07:19:18;27.40;;;15.50;;
72791;SDS011;60907;53.268;8.764;2023-04-23T07:21:44;26.98;;;13.80;;
72791;SDS011;60907;53.268;8.764;2023-04-23T07:24:09;28.25;;;14.50;;
72791;SDS011;60907;53.268;8.764;2023-04-23T07:26:35;26.45;;;13.27;;
72791;SDS011;60907;53.268;8.764;2023-04-23T07:29:01;30.05;;;15.02;;
72791;SDS011;60907;53.268;8.764;2023-04-23T07:31:28;21.45;;;10.02;;
72791;SDS011;60907;53.268;8.764;2023-04-23T07:33:54;29.02;;;15.07;;
72791;SDS011;60907;53.268;8.764;2023-04-23T07:36:20;29.40;;;15.40;;
72791;SDS011;60907;53.268;8.764;2023-04-23T07:38:46;34.13;;;17.02;;
72791;SDS011;60907;53.268;8.764;2023-04-23T07:41:11;27.02;;;12.90;;
72791;SDS011;60907;53.268;8.764;2023-04-23T07:43:37;31.00;;;15.32;;
72791;SDS011;60907;53.268;8.764;2023-04-23T07:46:02;31.23;;;15.10;;
72791;SDS011;60907;53.268;8.764;2023-04-23T07:48:29;30.58;;;15.65;;
72791;SDS011;60907;53.268;8.764;2023-04-23T07:50:55;33.33;;;16.85;;
72791;SDS011;60907;53.268;8.764;2023-04-23T07:53:21;27.95;;;15.50;;
72791;SDS011;60907;53.268;8.764;2023-04-23T07:55:46;30.42;;;16.65;;
72791;SDS011;60907;53.268;8.764;2023-04-23T07:58:12;22.83;;;11.73;;
72791;SDS011;60907;53.268;8.764;2023-04-23T08:00:37;23.92;;;13.63;;
72791;SDS011;60907;53.268;8.764;2023-04-23T08:03:02;23.85;;;12.63;;
72791;SDS011;60907;53.268;8.764;2023-04-23T08:05:28;24.08;;;13.70;;
72791;SDS011;60907;53.268;8.764;2023-04-23T08:07:53;27.03;;;13.40;;
72791;SDS011;60907;53.268;8.764;2023-04-23T08:10:19;19.30;;;11.32;;
72791;SDS011;60907;53.268;8.764;2023-04-23T08:12:44;26.98;;;15.18;;
72791;SDS011;60907;53.268;8.764;2023-04-23T08:15:10;26.85;;;14.95;;
72791;SDS011;60907;53.268;8.764;2023-04-23T08:17:36;26.98;;;15.05;;
72791;SDS011;60907;53.268;8.764;2023-04-23T08:20:02;24.88;;;14.18;;
72791;SDS011;60907;53.268;8.764;2023-04-23T08:22:28;20.75;;;11.23;;
72791;SDS011;60907;53.268;8.764;2023-04-23T08:24:53;22.83;;;12.10;;
72791;SDS011;60907;53.268;8.764;2023-04-23T08:27:18;18.40;;;9.43;;
72791;SDS011;60907;53.268;8.764;2023-04-23T08:29:44;22.65;;;12.32;;
72791;SDS011;60907;53.268;8.764;2023-04-23T08:32:10;18.98;;;10.93;;
72791;SDS011;60907;53.268;8.764;2023-04-23T08:34:35;16.60;;;9.52;;
72791;SDS011;60907;53.268;8.764;2023-04-23T08:37:00;23.33;;;11.00;;
72791;SDS011;60907;53.268;8.764;2023-04-23T08:39:26;21.07;;;11.47;;
72791;SDS011;60907;53.268;8.764;2023-04-23T08:41:55;22.58;;;12.07;;
72791;SDS011;60907;53.268;8.764;2023-04-23T08:44:23;18.70;;;10.60;;
72791;SDS011;60907;53.268;8.764;2023-04-23T08:46:50;18.40;;;10.52;;
72791;SDS011;60907;53.268;8.764;2023-04-23T08:49:17;20.85;;;12.20;;
72791;SDS011;60907;53.268;8.764;2023-04-23T08:51:49;21.75;;;10.40;;
72791;SDS011;60907;53.268;8.764;2023-04-23T08:54:21;24.48;;;12.70;;
72791;SDS011;60907;53.268;8.764;2023-04-23T08:56:50;21.38;;;11.95;;
72791;SDS011;60907;53.268;8.764;2023-04-23T08:59:17;19.70;;;11.20;;
72791;SDS011;60907;53.268;8.764;2023-04-23T09:01:45;19.52;;;10.90;;
72791;SDS011;60907;53.268;8.764;2023-04-23T09:04:10;21.35;;;11.43;;
72791;SDS011;60907;53.268;8.764;2023-04-23T09:06:40;20.92;;;11.40;;
72791;SDS011;60907;53.268;8.764;2023-04-23T09:09:07;13.30;;;8.07;;
72791;SDS011;60907;53.268;8.764;2023-04-23T09:11:32;21.05;;;11.32;;
72791;SDS011;60907;53.268;8.764;2023-04-23T09:14:00;19.45;;;10.27;;
72791;SDS011;60907;53.268;8.764;2023-04-23T09:16:25;19.80;;;11.13;;
72791;SDS011;60907;53.268;8.764;2023-04-23T09:18:51;22.07;;;10.43;;
72791;SDS011;60907;53.268;8.764;2023-04-23T09:21:17;16.60;;;8.90;;
72791;SDS011;60907;53.268;8.764;2023-04-23T09:23:42;20.05;;;10.02;;
72791;SDS011;60907;53.268;8.764;2023-04-23T09:26:07;17.50;;;10.38;;
72791;SDS011;60907;53.268;8.764;2023-04-23T09:28:36;17.30;;;9.30;;
72791;SDS011;60907;53.268;8.764;2023-04-23T09:31:05;19.38;;;11.23;;
72791;SDS011;60907;53.268;8.764;2023-04-23T09:33:33;18.17;;;11.15;;
72791;SDS011;60907;53.268;8.764;2023-04-23T09:36:04;14.07;;;7.55;;
72791;SDS011;60907;53.268;8.764;2023-04-23T09:38:38;15.40;;;9.35;;
72791;SDS011;60907;53.268;8.764;2023-04-23T09:41:24;16.55;;;10.18;;
72791;SDS011;60907;53.268;8.764;2023-04-23T09:46:38;17.90;;;10.35;;
72791;SDS011;60907;53.268;8.764;2023-04-23T09:49:06;18.58;;;10.60;;
72791;SDS011;60907;53.268;8.764;2023-04-23T09:51:34;19.92;;;11.38;;
72791;SDS011;60907;53.268;8.764;2023-04-23T09:54:07;16.30;;;10.00;;
72791;SDS011;60907;53.268;8.764;2023-04-23T09:56:35;14.98;;;7.10;;
72791;SDS011;60907;53.268;8.764;2023-04-23T09:59:00;16.63;;;9.47;;
72791;SDS011;60907;53.268;8.764;2023-04-23T10:01:26;15.48;;;9.30;;
72791;SDS011;60907;53.268;8.764;2023-04-23T10:03:53;14.45;;;9.00;;
72791;SDS011;60907;53.268;8.764;2023-04-23T10:06:25;15.32;;;8.93;;
72791;SDS011;60907;53.268;8.764;2023-04-23T10:08:53;16.77;;;10.10;;
72791;SDS011;60907;53.268;8.764;2023-04-23T10:11:23;18.30;;;10.90;;
72791;SDS011;60907;53.268;8.764;2023-04-23T10:13:49;15.98;;;8.88;;
72791;SDS011;60907;53.268;8.764;2023-04-23T10:16:15;13.70;;;8.32;;
72791;SDS011;60907;53.268;8.764;2023-04-23T10:18:41;14.25;;;8.80;;
72791;SDS011;60907;53.268;8.764;2023-04-23T10:21:06;13.02;;;8.07;;
72791;SDS011;60907;53.268;8.764;2023-04-23T10:23:32;10.60;;;7.53;;
72791;SDS011;60907;53.268;8.764;2023-04-23T10:25:58;14.25;;;7.93;;
72791;SDS011;60907;53.268;8.764;2023-04-23T10:28:25;15.95;;;9.80;;
72791;SDS011;60907;53.268;8.764;2023-04-23T10:30:55;15.43;;;8.90;;
72791;SDS011;60907;53.268;8.764;2023-04-23T10:33:21;15.20;;;9.82;;
72791;SDS011;60907;53.268;8.764;2023-04-23T10:35:47;12.85;;;8.65;;
72791;SDS011;60907;53.268;8.764;2023-04-23T10:38:13;13.88;;;8.63;;
72791;SDS011;60907;53.268;8.764;2023-04-23T10:40:39;15.27;;;8.85;;
72791;SDS011;60907;53.268;8.764;2023-04-23T10:43:08;14.93;;;7.95;;
72791;SDS011;60907;53.268;8.764;2023-04-23T10:45:33;16.60;;;8.90;;
72791;SDS011;60907;53.268;8.764;2023-04-23T10:47:59;10.20;;;7.50;;
72791;SDS011;60907;53.268;8.764;2023-04-23T10:52:51;14.52;;;7.55;;
72791;SDS011;60907;53.268;8.764;2023-04-23T10:55:25;17.48;;;7.65;;
72791;SDS011;60907;53.268;8.764;2023-04-23T10:58:02;10.68;;;6.45;;
72791;SDS011;60907;53.268;8.764;2023-04-23T11:03:31;18.33;;;10.23;;
72791;SDS011;60907;53.268;8.764;2023-04-23T11:06:03;15.52;;;8.82;;
72791;SDS011;60907;53.268;8.764;2023-04-23T11:08:29;13.48;;;9.43;;
72791;SDS011;60907;53.268;8.764;2023-04-23T11:10:57;15.45;;;9.60;;
72791;SDS011;60907;53.268;8.764;2023-04-23T11:13:24;16.05;;;10.48;;
72791;SDS011;60907;53.268;8.764;2023-04-23T11:16:24;17.45;;;7.78;;
72791;SDS011;60907;53.268;8.764;2023-04-23T11:19:02;13.25;;;7.90;;
72791;SDS011;60907;53.268;8.764;2023-04-23T11:24:23;14.38;;;8.60;;
72791;SDS011;60907;53.268;8.764;2023-04-23T11:26:51;13.50;;;8.27;;
72791;SDS011;60907;53.268;8.764;2023-04-23T11:29:20;14.25;;;9.07;;
72791;SDS011;60907;53.268;8.764;2023-04-23T11:31:48;15.57;;;8.75;;
72791;SDS011;60907;53.268;8.764;2023-04-23T11:34:13;13.75;;;7.93;;
72791;SDS011;60907;53.268;8.764;2023-04-23T11:36:39;14.90;;;9.95;;
72791;SDS011;60907;53.268;8.764;2023-04-23T11:39:05;17.58;;;9.60;;
72791;SDS011;60907;53.268;8.764;2023-04-23T11:41:31;15.80;;;9.93;;
72791;SDS011;60907;53.268;8.764;2023-04-23T11:43:57;17.85;;;10.02;;
72791;SDS011;60907;53.268;8.764;2023-04-23T11:46:23;17.48;;;10.20;;
72791;SDS011;60907;53.268;8.764;2023-04-23T11:48:49;13.80;;;9.10;;
72791;SDS011;60907;53.268;8.764;2023-04-23T11:51:14;17.13;;;9.20;;
72791;SDS011;60907;53.268;8.764;2023-04-23T11:53:46;14.27;;;8.32;;
72791;SDS011;60907;53.268;8.764;2023-04-23T11:56:14;12.82;;;9.20;;
72791;SDS011;60907;53.268;8.764;2023-04-23T11:58:40;13.75;;;8.65;;
72791;SDS011;60907;53.268;8.764;2023-04-23T12:01:05;16.60;;;9.70;;
72791;SDS011;60907;53.268;8.764;2023-04-23T12:03:32;11.52;;;7.82;;
72791;SDS011;60907;53.268;8.764;2023-04-23T12:05:57;13.10;;;7.60;;
72791;SDS011;60907;53.268;8.764;2023-04-23T12:08:23;11.30;;;7.60;;
72791;SDS011;60907;53.268;8.764;2023-04-23T12:11:00;15.18;;;8.55;;
72791;SDS011;60907;53.268;8.764;2023-04-23T12:13:27;15.02;;;9.50;;
72791;SDS011;60907;53.268;8.764;2023-04-23T12:15:59;12.65;;;7.07;;
72791;SDS011;60907;53.268;8.764;2023-04-23T12:18:26;11.98;;;8.65;;
72791;SDS011;60907;53.268;8.764;2023-04-23T12:20:52;13.05;;;8.73;;
72791;SDS011;60907;53.268;8.764;2023-04-23T12:23:18;15.77;;;9.18;;
72791;SDS011;60907;53.268;8.764;2023-04-23T12:25:43;11.98;;;8.80;;
72791;SDS011;60907;53.268;8.764;2023-04-23T12:28:08;11.40;;;8.57;;
72791;SDS011;60907;53.268;8.764;2023-04-23T12:30:40;12.60;;;8.80;;
72791;SDS011;60907;53.268;8.764;2023-04-23T12:33:09;14.13;;;8.23;;
72791;SDS011;60907;53.268;8.764;2023-04-23T12:38:07;13.20;;;7.32;;
72791;SDS011;60907;53.268;8.764;2023-04-23T12:40:33;12.93;;;8.07;;
72791;SDS011;60907;53.268;8.764;2023-04-23T12:42:58;14.60;;;8.73;;
72791;SDS011;60907;53.268;8.764;2023-04-23T12:45:24;13.75;;;9.25;;
72791;SDS011;60907;53.268;8.764;2023-04-23T12:47:50;12.52;;;8.20;;
72791;SDS011;60907;53.268;8.764;2023-04-23T12:50:15;13.77;;;9.90;;
72791;SDS011;60907;53.268;8.764;2023-04-23T12:52:41;14.88;;;10.25;;
72791;SDS011;60907;53.268;8.764;2023-04-23T12:55:07;15.30;;;10.13;;
72791;SDS011;60907;53.268;8.764;2023-04-23T12:57:32;13.52;;;9.93;;
72791;SDS011;60907;53.268;8.764;2023-04-23T12:59:58;13.95;;;9.73;;
72791;SDS011;60907;53.268;8.764;2023-04-23T13:02:23;13.43;;;9.30;;
72791;SDS011;60907;53.268;8.764;2023-04-23T13:04:49;12.57;;;8.43;;
72791;SDS011;60907;53.268;8.764;2023-04-23T13:07:15;14.30;;;8.93;;
72791;SDS011;60907;53.268;8.764;2023-04-23T13:09:40;11.20;;;6.80;;
72791;SDS011;60907;53.268;8.764;2023-04-23T13:12:06;9.43;;;6.65;;
72791;SDS011;60907;53.268;8.764;2023-04-23T13:14:31;7.50;;;6.33;;
72791;SDS011;60907;53.268;8.764;2023-04-23T13:16:56;9.32;;;6.25;;
72791;SDS011;60907;53.268;8.764;2023-04-23T13:19:22;4.45;;;3.60;;
72791;SDS011;60907;53.268;8.764;2023-04-23T13:21:48;5.78;;;4.70;;
72791;SDS011;60907;53.268;8.764;2023-04-23T13:24:13;6.20;;;4.68;;
72791;SDS011;60907;53.268;8.764;2023-04-23T13:26:39;7.45;;;4.82;;
72791;SDS011;60907;53.268;8.764;2023-04-23T13:29:04;6.47;;;5.17;;
72791;SDS011;60907;53.268;8.764;2023-04-23T13:31:30;8.27;;;5.80;;
72791;SDS011;60907;53.268;8.764;2023-04-23T13:33:56;7.20;;;5.22;;
72791;SDS011;60907;53.268;8.764;2023-04-23T13:36:22;6.97;;;5.35;;
72791;SDS011;60907;53.268;8.764;2023-04-23T13:38:48;7.88;;;5.50;;
72791;SDS011;60907;53.268;8.764;2023-04-23T13:41:14;7.85;;;5.38;;
72791;SDS011;60907;53.268;8.764;2023-04-23T13:43:39;6.40;;;5.03;;
72791;SDS011;60907;53.268;8.764;2023-04-23T13:46:05;6.73;;;5.47;;
72791;SDS011;60907;53.268;8.764;2023-04-23T13:48:31;4.63;;;3.50;;
72791;SDS011;60907;53.268;8.764;2023-04-23T13:50:59;5.32;;;4.63;;
72791;SDS011;60907;53.268;8.764;2023-04-23T13:53:26;5.03;;;4.35;;
72791;SDS011;60907;53.268;8.764;2023-04-23T13:55:52;5.57;;;4.25;;
72791;SDS011;60907;53.268;8.764;2023-04-23T14:00:44;5.57;;;3.70;;
72791;SDS011;60907;53.268;8.764;2023-04-23T14:03:09;6.28;;;4.35;;
72791;SDS011;60907;53.268;8.764;2023-04-23T14:05:34;6.65;;;4.25;;
72791;SDS011;60907;53.268;8.764;2023-04-23T14:08:00;5.53;;;4.35;;
72791;SDS011;60907;53.268;8.764;2023-04-23T14:10:25;5.57;;;4.60;;
72791;SDS011;60907;53.268;8.764;2023-04-23T14:12:51;6.68;;;4.75;;
72791;SDS011;60907;53.268;8.764;2023-04-23T14:15:17;4.78;;;4.30;;
72791;SDS011;60907;53.268;8.764;2023-04-23T14:17:42;5.05;;;4.00;;
72791;SDS011;60907;53.268;8.764;2023-04-23T14:22:35;5.25;;;4.07;;
72791;SDS011;60907;53.268;8.764;2023-04-23T14:25:01;7.40;;;4.78;;
72791;SDS011;60907;53.268;8.764;2023-04-23T14:27:32;4.55;;;3.95;;
72791;SDS011;60907;53.268;8.764;2023-04-23T14:30:01;6.45;;;4.40;;
72791;SDS011;60907;53.268;8.764;2023-04-23T14:32:29;5.10;;;3.85;;
72791;SDS011;60907;53.268;8.764;2023-04-23T14:34:54;5.28;;;4.10;;
72791;SDS011;60907;53.268;8.764;2023-04-23T14:37:20;4.67;;;4.13;;
72791;SDS011;60907;53.268;8.764;2023-04-23T14:39:45;6.88;;;3.92;;
72791;SDS011;60907;53.268;8.764;2023-04-23T14:42:11;6.43;;;4.00;;
72791;SDS011;60907;53.268;8.764;2023-04-23T14:44:36;4.93;;;4.10;;
72791;SDS011;60907;53.268;8.764;2023-04-23T14:47:02;4.10;;;3.70;;